sensor_id;sensor_type;location;lat;lon;timestamp;P1;durP1;ratioP1;P2;durP2;ratioP2
46777;SDS011;32536;47.128;8.746;2023-02-28T00:01:26;6.45;;;3.10;;
46777;SDS011;32536;47.128;8.746;2023-02-28T00:03:53;5.90;;;2.85;;
46777;SDS011;32536;47.128;8.746;2023-02-28T00:06:29;4.32;;;2.38;;
46777;SDS011;32536;47.128;8.746;2023-02-28T00:08:56;4.97;;;2.92;;
46777;SDS011;32536;47.128;8.746;2023-02-28T00:11:23;3.92;;;2.15;;
46777;SDS011;32536;47.128;8.746;2023-02-28T00:13:49;5.65;;;2.83;;
46777;SDS011;32536;47.128;8.746;2023-02-28T00:16:20;6.13;;;3.42;;
46777;SDS011;32536;47.128;8.746;2023-02-28T00:18:48;5.35;;;3.55;;
46777;SDS011;32536;47.128;8.746;2023-02-28T00:21:17;5.43;;;3.10;;
46777;SDS011;32536;47.128;8.746;2023-02-28T00:23:45;5.30;;;3.17;;
46777;SDS011;32536;47.128;8.746;2023-02-28T00:26:12;4.70;;;2.70;;
46777;SDS011;32536;47.128;8.746;2023-02-28T00:28:39;5.85;;;3.47;;
46777;SDS011;32536;47.128;8.746;2023-02-28T00:31:06;5.32;;;2.83;;
46777;SDS011;32536;47.128;8.746;2023-02-28T00:33:33;6.80;;;3.78;;
46777;SDS011;32536;47.128;8.746;2023-02-28T00:36:06;5.85;;;3.33;;
46777;SDS011;32536;47.128;8.746;2023-02-28T00:38:36;5.38;;;3.45;;
46777;SDS011;32536;47.128;8.746;2023-02-28T00:41:05;5.65;;;3.20;;
46777;SDS011;32536;47.128;8.746;2023-02-28T00:43:33;6.90;;;3.17;;
46777;SDS011;32536;47.128;8.746;2023-02-28T00:46:01;6.45;;;3.28;;
46777;SDS011;32536;47.128;8.746;2023-02-28T00:48:28;5.28;;;3.22;;
46777;SDS011;32536;47.128;8.746;2023-02-28T00:50:55;6.28;;;3.75;;
46777;SDS011;32536;47.128;8.746;2023-02-28T00:53:22;5.72;;;2.88;;
46777;SDS011;32536;47.128;8.746;2023-02-28T00:55:49;5.38;;;2.97;;
46777;SDS011;32536;47.128;8.746;2023-02-28T00:58:17;5.50;;;3.15;;
46777;SDS011;32536;47.128;8.746;2023-02-28T01:00:44;4.30;;;2.53;;
46777;SDS011;32536;47.128;8.746;2023-02-28T01:03:15;5.25;;;2.55;;
46777;SDS011;32536;47.128;8.746;2023-02-28T01:05:43;5.88;;;3.15;;
46777;SDS011;32536;47.128;8.746;2023-02-28T01:08:11;6.78;;;3.85;;
46777;SDS011;32536;47.128;8.746;2023-02-28T01:10:39;4.68;;;2.88;;
46777;SDS011;32536;47.128;8.746;2023-02-28T01:13:06;6.90;;;3.53;;
46777;SDS011;32536;47.128;8.746;2023-02-28T01:15:33;4.45;;;2.65;;
46777;SDS011;32536;47.128;8.746;2023-02-28T01:18:00;3.60;;;2.00;;
46777;SDS011;32536;47.128;8.746;2023-02-28T01:20:27;5.20;;;3.08;;
46777;SDS011;32536;47.128;8.746;2023-02-28T01:22:53;5.20;;;2.95;;
46777;SDS011;32536;47.128;8.746;2023-02-28T01:25:20;4.70;;;2.95;;
46777;SDS011;32536;47.128;8.746;2023-02-28T01:27:47;5.38;;;3.00;;
46777;SDS011;32536;47.128;8.746;2023-02-28T01:30:14;5.03;;;2.65;;
46777;SDS011;32536;47.128;8.746;2023-02-28T01:32:40;4.47;;;2.50;;
46777;SDS011;32536;47.128;8.746;2023-02-28T01:35:07;4.20;;;2.45;;
46777;SDS011;32536;47.128;8.746;2023-02-28T01:37:34;3.83;;;2.13;;
46777;SDS011;32536;47.128;8.746;2023-02-28T01:40:01;4.35;;;2.45;;
46777;SDS011;32536;47.128;8.746;2023-02-28T01:42:29;4.70;;;2.53;;
46777;SDS011;32536;47.128;8.746;2023-02-28T01:45:00;6.13;;;3.25;;
46777;SDS011;32536;47.128;8.746;2023-02-28T01:47:43;4.68;;;2.72;;
46777;SDS011;32536;47.128;8.746;2023-02-28T01:50:18;4.72;;;2.88;;
46777;SDS011;32536;47.128;8.746;2023-02-28T01:52:49;5.15;;;2.63;;
46777;SDS011;32536;47.128;8.746;2023-02-28T01:55:18;3.65;;;2.63;;
46777;SDS011;32536;47.128;8.746;2023-02-28T01:57:49;4.57;;;2.42;;
46777;SDS011;32536;47.128;8.746;2023-02-28T02:00:22;4.53;;;2.50;;
46777;SDS011;32536;47.128;8.746;2023-02-28T02:02:55;6.18;;;3.50;;
46777;SDS011;32536;47.128;8.746;2023-02-28T02:05:28;4.40;;;2.75;;
46777;SDS011;32536;47.128;8.746;2023-02-28T02:07:57;4.53;;;2.40;;
46777;SDS011;32536;47.128;8.746;2023-02-28T02:10:40;4.63;;;2.67;;
46777;SDS011;32536;47.128;8.746;2023-02-28T02:22:52;4.28;;;2.40;;
46777;SDS011;32536;47.128;8.746;2023-02-28T02:31:32;4.25;;;2.65;;
46777;SDS011;32536;47.128;8.746;2023-02-28T02:34:39;4.28;;;3.03;;
46777;SDS011;32536;47.128;8.746;2023-02-28T02:43:32;3.63;;;2.22;;
46777;SDS011;32536;47.128;8.746;2023-02-28T02:46:02;4.15;;;2.55;;
46777;SDS011;32536;47.128;8.746;2023-02-28T02:48:43;3.30;;;2.22;;
46777;SDS011;32536;47.128;8.746;2023-02-28T02:51:13;4.32;;;2.45;;
46777;SDS011;32536;47.128;8.746;2023-02-28T02:53:47;4.95;;;2.67;;
46777;SDS011;32536;47.128;8.746;2023-02-28T02:56:17;4.35;;;3.28;;
46777;SDS011;32536;47.128;8.746;2023-02-28T02:58:49;4.97;;;2.95;;
46777;SDS011;32536;47.128;8.746;2023-02-28T03:01:21;5.22;;;3.25;;
46777;SDS011;32536;47.128;8.746;2023-02-28T03:06:40;4.45;;;2.78;;
46777;SDS011;32536;47.128;8.746;2023-02-28T03:09:07;4.03;;;2.30;;
46777;SDS011;32536;47.128;8.746;2023-02-28T03:11:35;4.15;;;2.65;;
46777;SDS011;32536;47.128;8.746;2023-02-28T03:17:25;3.63;;;2.33;;
46777;SDS011;32536;47.128;8.746;2023-02-28T03:20:07;3.33;;;2.05;;
46777;SDS011;32536;47.128;8.746;2023-02-28T03:23:07;4.47;;;2.70;;
46777;SDS011;32536;47.128;8.746;2023-02-28T03:26:06;3.95;;;2.45;;
46777;SDS011;32536;47.128;8.746;2023-02-28T03:31:38;4.05;;;2.25;;
46777;SDS011;32536;47.128;8.746;2023-02-28T03:34:11;5.13;;;2.58;;
46777;SDS011;32536;47.128;8.746;2023-02-28T03:37:10;3.65;;;2.22;;
46777;SDS011;32536;47.128;8.746;2023-02-28T03:39:45;4.43;;;2.40;;
46777;SDS011;32536;47.128;8.746;2023-02-28T03:42:20;5.18;;;2.50;;
46777;SDS011;32536;47.128;8.746;2023-02-28T03:44:53;4.43;;;2.65;;
46777;SDS011;32536;47.128;8.746;2023-02-28T03:50:50;5.43;;;3.63;;
46777;SDS011;32536;47.128;8.746;2023-02-28T03:53:24;4.68;;;2.63;;
46777;SDS011;32536;47.128;8.746;2023-02-28T03:56:01;4.57;;;2.63;;
46777;SDS011;32536;47.128;8.746;2023-02-28T03:58:59;4.93;;;2.70;;
46777;SDS011;32536;47.128;8.746;2023-02-28T04:01:48;4.50;;;2.67;;
46777;SDS011;32536;47.128;8.746;2023-02-28T04:04:16;4.10;;;2.45;;
46777;SDS011;32536;47.128;8.746;2023-02-28T04:06:46;5.72;;;3.10;;
46777;SDS011;32536;47.128;8.746;2023-02-28T04:09:17;4.78;;;2.47;;
46777;SDS011;32536;47.128;8.746;2023-02-28T04:11:44;4.90;;;2.85;;
46777;SDS011;32536;47.128;8.746;2023-02-28T04:14:19;4.18;;;2.50;;
46777;SDS011;32536;47.128;8.746;2023-02-28T04:16:45;4.75;;;3.00;;
46777;SDS011;32536;47.128;8.746;2023-02-28T04:19:12;4.03;;;2.15;;
46777;SDS011;32536;47.128;8.746;2023-02-28T04:21:41;3.22;;;2.17;;
46777;SDS011;32536;47.128;8.746;2023-02-28T04:24:23;4.00;;;2.47;;
46777;SDS011;32536;47.128;8.746;2023-02-28T04:26:53;4.97;;;2.75;;
46777;SDS011;32536;47.128;8.746;2023-02-28T04:29:23;5.95;;;3.80;;
46777;SDS011;32536;47.128;8.746;2023-02-28T04:31:58;4.82;;;2.92;;
46777;SDS011;32536;47.128;8.746;2023-02-28T04:34:26;4.00;;;2.17;;
46777;SDS011;32536;47.128;8.746;2023-02-28T04:36:55;4.07;;;2.17;;
46777;SDS011;32536;47.128;8.746;2023-02-28T04:39:23;3.83;;;2.20;;
46777;SDS011;32536;47.128;8.746;2023-02-28T04:41:50;5.35;;;3.00;;
46777;SDS011;32536;47.128;8.746;2023-02-28T04:44:17;4.97;;;2.97;;
46777;SDS011;32536;47.128;8.746;2023-02-28T04:46:44;3.95;;;2.45;;
46777;SDS011;32536;47.128;8.746;2023-02-28T04:49:11;4.65;;;2.72;;
46777;SDS011;32536;47.128;8.746;2023-02-28T04:51:38;4.15;;;2.63;;
46777;SDS011;32536;47.128;8.746;2023-02-28T04:54:05;3.97;;;2.53;;
46777;SDS011;32536;47.128;8.746;2023-02-28T04:56:33;4.97;;;2.22;;
46777;SDS011;32536;47.128;8.746;2023-02-28T04:58:59;4.57;;;2.85;;
46777;SDS011;32536;47.128;8.746;2023-02-28T05:01:30;5.30;;;2.67;;
46777;SDS011;32536;47.128;8.746;2023-02-28T05:04:00;3.75;;;2.30;;
46777;SDS011;32536;47.128;8.746;2023-02-28T05:06:47;4.90;;;2.67;;
46777;SDS011;32536;47.128;8.746;2023-02-28T05:09:14;3.90;;;1.58;;
46777;SDS011;32536;47.128;8.746;2023-02-28T05:11:41;3.03;;;1.92;;
46777;SDS011;32536;47.128;8.746;2023-02-28T05:14:11;4.85;;;2.38;;
46777;SDS011;32536;47.128;8.746;2023-02-28T05:16:39;4.93;;;3.22;;
46777;SDS011;32536;47.128;8.746;2023-02-28T05:19:06;5.57;;;2.63;;
46777;SDS011;32536;47.128;8.746;2023-02-28T05:21:34;5.60;;;2.97;;
46777;SDS011;32536;47.128;8.746;2023-02-28T05:24:04;5.38;;;3.08;;
46777;SDS011;32536;47.128;8.746;2023-02-28T05:26:38;5.97;;;3.20;;
46777;SDS011;32536;47.128;8.746;2023-02-28T05:29:08;4.30;;;2.67;;
46777;SDS011;32536;47.128;8.746;2023-02-28T05:31:36;4.82;;;2.53;;
46777;SDS011;32536;47.128;8.746;2023-02-28T05:34:03;3.70;;;2.03;;
46777;SDS011;32536;47.128;8.746;2023-02-28T05:36:30;4.15;;;2.33;;
46777;SDS011;32536;47.128;8.746;2023-02-28T05:38:57;3.05;;;1.40;;
46777;SDS011;32536;47.128;8.746;2023-02-28T05:41:24;4.55;;;2.95;;
46777;SDS011;32536;47.128;8.746;2023-02-28T05:43:51;4.93;;;2.88;;
46777;SDS011;32536;47.128;8.746;2023-02-28T05:46:18;4.80;;;2.58;;
46777;SDS011;32536;47.128;8.746;2023-02-28T05:48:46;5.43;;;3.47;;
46777;SDS011;32536;47.128;8.746;2023-02-28T05:51:13;4.70;;;3.13;;
46777;SDS011;32536;47.128;8.746;2023-02-28T05:53:40;4.05;;;2.58;;
46777;SDS011;32536;47.128;8.746;2023-02-28T05:56:07;4.30;;;1.92;;
46777;SDS011;32536;47.128;8.746;2023-02-28T05:58:34;4.93;;;2.58;;
46777;SDS011;32536;47.128;8.746;2023-02-28T06:01:18;6.65;;;3.38;;
46777;SDS011;32536;47.128;8.746;2023-02-28T06:04:03;5.68;;;2.70;;
46777;SDS011;32536;47.128;8.746;2023-02-28T06:06:51;4.68;;;2.85;;
46777;SDS011;32536;47.128;8.746;2023-02-28T06:09:18;4.95;;;2.90;;
46777;SDS011;32536;47.128;8.746;2023-02-28T06:11:46;4.60;;;2.17;;
46777;SDS011;32536;47.128;8.746;2023-02-28T06:14:16;5.35;;;3.30;;
46777;SDS011;32536;47.128;8.746;2023-02-28T06:16:45;5.00;;;2.88;;
46777;SDS011;32536;47.128;8.746;2023-02-28T06:19:12;4.15;;;2.20;;
46777;SDS011;32536;47.128;8.746;2023-02-28T06:21:40;4.60;;;2.58;;
46777;SDS011;32536;47.128;8.746;2023-02-28T06:24:07;6.00;;;2.38;;
46777;SDS011;32536;47.128;8.746;2023-02-28T06:26:34;3.88;;;1.98;;
46777;SDS011;32536;47.128;8.746;2023-02-28T06:29:02;3.35;;;2.15;;
46777;SDS011;32536;47.128;8.746;2023-02-28T06:31:29;4.57;;;2.85;;
46777;SDS011;32536;47.128;8.746;2023-02-28T06:33:56;4.90;;;2.88;;
46777;SDS011;32536;47.128;8.746;2023-02-28T06:36:23;4.78;;;2.97;;
46777;SDS011;32536;47.128;8.746;2023-02-28T06:38:49;5.75;;;2.42;;
46777;SDS011;32536;47.128;8.746;2023-02-28T06:41:21;4.88;;;2.65;;
46777;SDS011;32536;47.128;8.746;2023-02-28T06:43:49;4.75;;;2.70;;
46777;SDS011;32536;47.128;8.746;2023-02-28T06:46:16;4.88;;;2.65;;
46777;SDS011;32536;47.128;8.746;2023-02-28T06:48:44;4.00;;;2.55;;
46777;SDS011;32536;47.128;8.746;2023-02-28T06:51:12;3.42;;;2.35;;
46777;SDS011;32536;47.128;8.746;2023-02-28T06:53:42;4.35;;;2.47;;
46777;SDS011;32536;47.128;8.746;2023-02-28T06:56:10;4.20;;;2.33;;
46777;SDS011;32536;47.128;8.746;2023-02-28T06:58:39;6.13;;;3.42;;
46777;SDS011;32536;47.128;8.746;2023-02-28T07:01:07;6.18;;;2.92;;
46777;SDS011;32536;47.128;8.746;2023-02-28T07:03:34;5.82;;;3.17;;
46777;SDS011;32536;47.128;8.746;2023-02-28T07:06:02;5.90;;;2.42;;
46777;SDS011;32536;47.128;8.746;2023-02-28T07:08:30;7.20;;;3.53;;
46777;SDS011;32536;47.128;8.746;2023-02-28T07:10:58;6.78;;;3.13;;
46777;SDS011;32536;47.128;8.746;2023-02-28T07:13:25;6.80;;;3.53;;
46777;SDS011;32536;47.128;8.746;2023-02-28T07:15:59;6.35;;;3.42;;
46777;SDS011;32536;47.128;8.746;2023-02-28T07:18:29;8.40;;;4.28;;
46777;SDS011;32536;47.128;8.746;2023-02-28T07:20:57;8.32;;;4.03;;
46777;SDS011;32536;47.128;8.746;2023-02-28T07:23:24;6.95;;;3.55;;
46777;SDS011;32536;47.128;8.746;2023-02-28T07:25:50;7.85;;;3.95;;
46777;SDS011;32536;47.128;8.746;2023-02-28T07:28:17;7.28;;;3.30;;
46777;SDS011;32536;47.128;8.746;2023-02-28T07:30:44;7.38;;;3.63;;
46777;SDS011;32536;47.128;8.746;2023-02-28T07:33:11;6.13;;;3.08;;
46777;SDS011;32536;47.128;8.746;2023-02-28T07:35:37;7.35;;;4.15;;
46777;SDS011;32536;47.128;8.746;2023-02-28T07:38:04;7.57;;;3.55;;
46777;SDS011;32536;47.128;8.746;2023-02-28T07:40:33;7.22;;;4.22;;
46777;SDS011;32536;47.128;8.746;2023-02-28T07:43:01;9.18;;;4.72;;
46777;SDS011;32536;47.128;8.746;2023-02-28T07:45:29;6.75;;;3.53;;
46777;SDS011;32536;47.128;8.746;2023-02-28T07:47:59;7.72;;;4.03;;
46777;SDS011;32536;47.128;8.746;2023-02-28T07:50:27;7.65;;;3.95;;
46777;SDS011;32536;47.128;8.746;2023-02-28T07:52:57;7.22;;;3.08;;
46777;SDS011;32536;47.128;8.746;2023-02-28T07:55:25;4.97;;;2.85;;
46777;SDS011;32536;47.128;8.746;2023-02-28T07:57:52;6.22;;;3.25;;
46777;SDS011;32536;47.128;8.746;2023-02-28T08:00:18;7.47;;;3.63;;
46777;SDS011;32536;47.128;8.746;2023-02-28T08:02:46;5.72;;;3.05;;
46777;SDS011;32536;47.128;8.746;2023-02-28T08:05:12;8.35;;;4.35;;
46777;SDS011;32536;47.128;8.746;2023-02-28T08:07:39;7.55;;;3.88;;
46777;SDS011;32536;47.128;8.746;2023-02-28T08:10:06;11.45;;;5.22;;
46777;SDS011;32536;47.128;8.746;2023-02-28T08:12:35;10.50;;;5.40;;
46777;SDS011;32536;47.128;8.746;2023-02-28T08:15:02;7.22;;;3.10;;
46777;SDS011;32536;47.128;8.746;2023-02-28T08:17:29;8.15;;;4.40;;
46777;SDS011;32536;47.128;8.746;2023-02-28T08:19:56;8.60;;;4.72;;
46777;SDS011;32536;47.128;8.746;2023-02-28T08:22:22;6.28;;;3.75;;
46777;SDS011;32536;47.128;8.746;2023-02-28T08:24:49;7.88;;;4.15;;
46777;SDS011;32536;47.128;8.746;2023-02-28T08:27:16;6.70;;;3.40;;
46777;SDS011;32536;47.128;8.746;2023-02-28T08:29:43;7.55;;;4.57;;
46777;SDS011;32536;47.128;8.746;2023-02-28T08:32:09;7.28;;;3.88;;
46777;SDS011;32536;47.128;8.746;2023-02-28T08:34:38;8.00;;;3.70;;
46777;SDS011;32536;47.128;8.746;2023-02-28T08:37:06;7.13;;;3.85;;
46777;SDS011;32536;47.128;8.746;2023-02-28T08:39:35;7.13;;;3.45;;
46777;SDS011;32536;47.128;8.746;2023-02-28T08:42:03;7.80;;;3.85;;
46777;SDS011;32536;47.128;8.746;2023-02-28T08:44:30;7.38;;;3.63;;
46777;SDS011;32536;47.128;8.746;2023-02-28T08:46:57;7.10;;;3.67;;
46777;SDS011;32536;47.128;8.746;2023-02-28T08:49:24;8.57;;;4.72;;
46777;SDS011;32536;47.128;8.746;2023-02-28T08:51:51;7.75;;;3.40;;
46777;SDS011;32536;47.128;8.746;2023-02-28T08:54:18;8.75;;;4.63;;
46777;SDS011;32536;47.128;8.746;2023-02-28T08:56:45;7.35;;;3.45;;
46777;SDS011;32536;47.128;8.746;2023-02-28T08:59:13;6.97;;;3.53;;
46777;SDS011;32536;47.128;8.746;2023-02-28T09:01:40;5.50;;;2.95;;
46777;SDS011;32536;47.128;8.746;2023-02-28T09:04:09;7.15;;;3.95;;
46777;SDS011;32536;47.128;8.746;2023-02-28T09:09:28;4.85;;;3.20;;
46777;SDS011;32536;47.128;8.746;2023-02-28T09:11:56;5.45;;;2.58;;
46777;SDS011;32536;47.128;8.746;2023-02-28T09:14:22;5.80;;;2.65;;
46777;SDS011;32536;47.128;8.746;2023-02-28T09:16:49;5.78;;;3.72;;
46777;SDS011;32536;47.128;8.746;2023-02-28T09:19:16;4.53;;;2.20;;
46777;SDS011;32536;47.128;8.746;2023-02-28T09:21:43;6.25;;;2.95;;
46777;SDS011;32536;47.128;8.746;2023-02-28T09:24:09;6.03;;;3.28;;
46777;SDS011;32536;47.128;8.746;2023-02-28T09:26:39;5.00;;;2.85;;
46777;SDS011;32536;47.128;8.746;2023-02-28T09:29:06;5.95;;;3.38;;
46777;SDS011;32536;47.128;8.746;2023-02-28T09:31:32;5.97;;;2.83;;
46777;SDS011;32536;47.128;8.746;2023-02-28T09:33:59;7.55;;;3.53;;
46777;SDS011;32536;47.128;8.746;2023-02-28T09:36:26;8.95;;;4.65;;
46777;SDS011;32536;47.128;8.746;2023-02-28T09:38:55;6.60;;;3.88;;
46777;SDS011;32536;47.128;8.746;2023-02-28T09:41:23;7.30;;;3.40;;
46777;SDS011;32536;47.128;8.746;2023-02-28T09:43:55;6.28;;;3.40;;
46777;SDS011;32536;47.128;8.746;2023-02-28T09:49:11;5.75;;;3.78;;
46777;SDS011;32536;47.128;8.746;2023-02-28T09:54:17;7.82;;;3.95;;
46777;SDS011;32536;47.128;8.746;2023-02-28T09:56:53;5.90;;;3.65;;
46777;SDS011;32536;47.128;8.746;2023-02-28T10:00:19;7.78;;;3.90;;
46777;SDS011;32536;47.128;8.746;2023-02-28T10:02:47;5.85;;;2.80;;
46777;SDS011;32536;47.128;8.746;2023-02-28T10:05:30;5.50;;;3.00;;
46777;SDS011;32536;47.128;8.746;2023-02-28T10:08:30;6.90;;;3.65;;
46777;SDS011;32536;47.128;8.746;2023-02-28T10:11:21;5.85;;;3.05;;
46777;SDS011;32536;47.128;8.746;2023-02-28T10:13:54;7.10;;;3.88;;
46777;SDS011;32536;47.128;8.746;2023-02-28T10:19:14;7.53;;;3.80;;
46777;SDS011;32536;47.128;8.746;2023-02-28T10:21:55;6.57;;;3.25;;
46777;SDS011;32536;47.128;8.746;2023-02-28T10:24:43;4.47;;;2.50;;
46777;SDS011;32536;47.128;8.746;2023-02-28T10:27:14;4.88;;;2.67;;
46777;SDS011;32536;47.128;8.746;2023-02-28T10:29:51;5.85;;;3.00;;
46777;SDS011;32536;47.128;8.746;2023-02-28T10:32:25;5.95;;;3.03;;
46777;SDS011;32536;47.128;8.746;2023-02-28T10:34:57;6.95;;;3.15;;
46777;SDS011;32536;47.128;8.746;2023-02-28T10:37:32;6.13;;;3.75;;
46777;SDS011;32536;47.128;8.746;2023-02-28T10:40:04;7.20;;;3.95;;
46777;SDS011;32536;47.128;8.746;2023-02-28T10:42:34;7.35;;;3.22;;
46777;SDS011;32536;47.128;8.746;2023-02-28T10:45:14;5.85;;;3.05;;
46777;SDS011;32536;47.128;8.746;2023-02-28T10:47:56;6.55;;;3.78;;
46777;SDS011;32536;47.128;8.746;2023-02-28T10:58:53;5.68;;;3.35;;
46777;SDS011;32536;47.128;8.746;2023-02-28T11:01:42;4.20;;;2.30;;
46777;SDS011;32536;47.128;8.746;2023-02-28T11:07:18;5.85;;;4.13;;
46777;SDS011;32536;47.128;8.746;2023-02-28T11:09:48;5.43;;;2.90;;
46777;SDS011;32536;47.128;8.746;2023-02-28T11:14:58;6.20;;;3.20;;
46777;SDS011;32536;47.128;8.746;2023-02-28T11:17:53;4.88;;;3.22;;
46777;SDS011;32536;47.128;8.746;2023-02-28T11:20:27;5.90;;;3.13;;
46777;SDS011;32536;47.128;8.746;2023-02-28T11:22:58;4.60;;;2.45;;
46777;SDS011;32536;47.128;8.746;2023-02-28T11:25:32;6.20;;;3.03;;
46777;SDS011;32536;47.128;8.746;2023-02-28T11:28:03;8.18;;;4.18;;
46777;SDS011;32536;47.128;8.746;2023-02-28T11:30:35;7.45;;;4.13;;
46777;SDS011;32536;47.128;8.746;2023-02-28T11:36:24;6.38;;;3.50;;
46777;SDS011;32536;47.128;8.746;2023-02-28T11:38:56;9.20;;;4.78;;
46777;SDS011;32536;47.128;8.746;2023-02-28T11:44:48;6.95;;;3.53;;
46777;SDS011;32536;47.128;8.746;2023-02-28T11:53:28;6.60;;;3.17;;
46777;SDS011;32536;47.128;8.746;2023-02-28T11:56:21;6.07;;;3.20;;
46777;SDS011;32536;47.128;8.746;2023-02-28T12:02:08;9.30;;;4.10;;
46777;SDS011;32536;47.128;8.746;2023-02-28T12:13:52;6.93;;;3.75;;
46777;SDS011;32536;47.128;8.746;2023-02-28T12:16:57;7.05;;;3.78;;
46777;SDS011;32536;47.128;8.746;2023-02-28T12:19:55;5.55;;;2.75;;
46777;SDS011;32536;47.128;8.746;2023-02-28T12:28:14;6.18;;;3.35;;
46777;SDS011;32536;47.128;8.746;2023-02-28T12:33:24;5.85;;;3.10;;
46777;SDS011;32536;47.128;8.746;2023-02-28T12:36:00;7.32;;;4.10;;
46777;SDS011;32536;47.128;8.746;2023-02-28T12:41:13;5.53;;;3.53;;
46777;SDS011;32536;47.128;8.746;2023-02-28T12:43:57;5.15;;;2.70;;
46777;SDS011;32536;47.128;8.746;2023-02-28T12:46:41;5.57;;;3.05;;
46777;SDS011;32536;47.128;8.746;2023-02-28T12:49:19;6.32;;;2.90;;
46777;SDS011;32536;47.128;8.746;2023-02-28T12:52:00;4.70;;;2.80;;
46777;SDS011;32536;47.128;8.746;2023-02-28T12:54:37;6.10;;;3.03;;
46777;SDS011;32536;47.128;8.746;2023-02-28T12:57:39;6.55;;;3.45;;
46777;SDS011;32536;47.128;8.746;2023-02-28T13:00:16;6.28;;;3.13;;
46777;SDS011;32536;47.128;8.746;2023-02-28T13:02:58;6.60;;;3.55;;
46777;SDS011;32536;47.128;8.746;2023-02-28T13:05:39;5.10;;;3.22;;
46777;SDS011;32536;47.128;8.746;2023-02-28T13:11:24;6.65;;;3.67;;
46777;SDS011;32536;47.128;8.746;2023-02-28T13:13:59;6.93;;;3.40;;
46777;SDS011;32536;47.128;8.746;2023-02-28T13:19:38;5.65;;;3.13;;
46777;SDS011;32536;47.128;8.746;2023-02-28T13:27:50;7.20;;;3.58;;
46777;SDS011;32536;47.128;8.746;2023-02-28T13:33:20;8.93;;;4.35;;
46777;SDS011;32536;47.128;8.746;2023-02-28T13:36:08;7.10;;;3.35;;
46777;SDS011;32536;47.128;8.746;2023-02-28T13:38:48;7.13;;;3.92;;
46777;SDS011;32536;47.128;8.746;2023-02-28T13:54:34;5.35;;;3.22;;
46777;SDS011;32536;47.128;8.746;2023-02-28T14:00:16;5.60;;;2.72;;
46777;SDS011;32536;47.128;8.746;2023-02-28T14:06:15;4.90;;;2.42;;
46777;SDS011;32536;47.128;8.746;2023-02-28T14:09:40;5.93;;;3.33;;
46777;SDS011;32536;47.128;8.746;2023-02-28T14:11:53;5.97;;;3.65;;
46777;SDS011;32536;47.128;8.746;2023-02-28T14:17:03;7.65;;;3.63;;
46777;SDS011;32536;47.128;8.746;2023-02-28T14:19:38;5.82;;;3.45;;
46777;SDS011;32536;47.128;8.746;2023-02-28T14:37:23;7.22;;;3.63;;
46777;SDS011;32536;47.128;8.746;2023-02-28T14:39:56;8.15;;;4.35;;
46777;SDS011;32536;47.128;8.746;2023-02-28T14:44:56;6.45;;;3.00;;
46777;SDS011;32536;47.128;8.746;2023-02-28T14:47:23;7.03;;;4.10;;
46777;SDS011;32536;47.128;8.746;2023-02-28T14:49:58;6.85;;;3.33;;
46777;SDS011;32536;47.128;8.746;2023-02-28T14:52:30;6.07;;;3.60;;
46777;SDS011;32536;47.128;8.746;2023-02-28T14:55:00;6.05;;;3.17;;
46777;SDS011;32536;47.128;8.746;2023-02-28T14:57:34;5.63;;;3.00;;
46777;SDS011;32536;47.128;8.746;2023-02-28T15:00:23;5.63;;;3.20;;
46777;SDS011;32536;47.128;8.746;2023-02-28T15:02:54;6.93;;;3.38;;
46777;SDS011;32536;47.128;8.746;2023-02-28T15:05:24;5.45;;;3.10;;
46777;SDS011;32536;47.128;8.746;2023-02-28T15:08:04;6.25;;;2.95;;
46777;SDS011;32536;47.128;8.746;2023-02-28T15:10:56;5.35;;;2.88;;
46777;SDS011;32536;47.128;8.746;2023-02-28T15:13:37;4.80;;;2.67;;
46777;SDS011;32536;47.128;8.746;2023-02-28T15:16:11;4.63;;;2.33;;
46777;SDS011;32536;47.128;8.746;2023-02-28T15:18:50;7.00;;;3.13;;
46777;SDS011;32536;47.128;8.746;2023-02-28T15:21:48;4.07;;;2.35;;
46777;SDS011;32536;47.128;8.746;2023-02-28T15:24:40;5.78;;;3.25;;
46777;SDS011;32536;47.128;8.746;2023-02-28T15:27:16;5.53;;;3.33;;
46777;SDS011;32536;47.128;8.746;2023-02-28T15:29:49;6.18;;;3.05;;
46777;SDS011;32536;47.128;8.746;2023-02-28T15:32:38;4.80;;;3.22;;
46777;SDS011;32536;47.128;8.746;2023-02-28T15:35:27;5.43;;;3.42;;
46777;SDS011;32536;47.128;8.746;2023-02-28T15:37:58;6.97;;;3.47;;
46777;SDS011;32536;47.128;8.746;2023-02-28T15:40:53;5.53;;;2.75;;
46777;SDS011;32536;47.128;8.746;2023-02-28T15:43:26;5.85;;;3.20;;
46777;SDS011;32536;47.128;8.746;2023-02-28T15:48:30;5.10;;;3.15;;
46777;SDS011;32536;47.128;8.746;2023-02-28T15:51:15;5.20;;;3.22;;
46777;SDS011;32536;47.128;8.746;2023-02-28T15:53:57;7.45;;;3.55;;
46777;SDS011;32536;47.128;8.746;2023-02-28T15:59:20;6.78;;;3.28;;
46777;SDS011;32536;47.128;8.746;2023-02-28T16:04:35;6.90;;;3.47;;
46777;SDS011;32536;47.128;8.746;2023-02-28T16:09:55;5.13;;;2.92;;
46777;SDS011;32536;47.128;8.746;2023-02-28T16:12:24;6.25;;;3.13;;
46777;SDS011;32536;47.128;8.746;2023-02-28T16:14:58;4.53;;;3.05;;
46777;SDS011;32536;47.128;8.746;2023-02-28T16:17:32;4.93;;;2.83;;
46777;SDS011;32536;47.128;8.746;2023-02-28T16:20:05;9.00;;;4.03;;
46777;SDS011;32536;47.128;8.746;2023-02-28T16:22:42;6.43;;;3.83;;
46777;SDS011;32536;47.128;8.746;2023-02-28T16:25:16;5.82;;;3.25;;
46777;SDS011;32536;47.128;8.746;2023-02-28T16:27:50;7.68;;;3.78;;
46777;SDS011;32536;47.128;8.746;2023-02-28T16:30:20;7.70;;;3.40;;
46777;SDS011;32536;47.128;8.746;2023-02-28T16:32:50;8.02;;;3.85;;
46777;SDS011;32536;47.128;8.746;2023-02-28T16:35:19;6.82;;;3.80;;
46777;SDS011;32536;47.128;8.746;2023-02-28T16:37:47;6.90;;;2.78;;
46777;SDS011;32536;47.128;8.746;2023-02-28T16:40:15;8.02;;;4.53;;
46777;SDS011;32536;47.128;8.746;2023-02-28T16:42:46;5.85;;;2.88;;
46777;SDS011;32536;47.128;8.746;2023-02-28T16:45:18;7.53;;;3.30;;
46777;SDS011;32536;47.128;8.746;2023-02-28T16:50:20;6.18;;;3.80;;
46777;SDS011;32536;47.128;8.746;2023-02-28T16:52:52;4.85;;;2.47;;
46777;SDS011;32536;47.128;8.746;2023-02-28T16:55:20;5.93;;;3.28;;
46777;SDS011;32536;47.128;8.746;2023-02-28T16:58:00;5.80;;;2.30;;
46777;SDS011;32536;47.128;8.746;2023-02-28T17:00:29;5.90;;;3.35;;
46777;SDS011;32536;47.128;8.746;2023-02-28T17:02:57;6.70;;;2.95;;
46777;SDS011;32536;47.128;8.746;2023-02-28T17:05:25;7.07;;;3.35;;
46777;SDS011;32536;47.128;8.746;2023-02-28T17:07:54;7.35;;;3.30;;
46777;SDS011;32536;47.128;8.746;2023-02-28T17:10:22;6.38;;;2.65;;
46777;SDS011;32536;47.128;8.746;2023-02-28T17:12:52;7.60;;;4.45;;
46777;SDS011;32536;47.128;8.746;2023-02-28T17:15:19;6.15;;;3.25;;
46777;SDS011;32536;47.128;8.746;2023-02-28T17:17:47;6.55;;;3.13;;
46777;SDS011;32536;47.128;8.746;2023-02-28T17:20:20;6.18;;;3.53;;
46777;SDS011;32536;47.128;8.746;2023-02-28T17:22:49;7.55;;;4.40;;
46777;SDS011;32536;47.128;8.746;2023-02-28T17:25:16;10.85;;;5.40;;
46777;SDS011;32536;47.128;8.746;2023-02-28T17:27:43;8.40;;;4.45;;
46777;SDS011;32536;47.128;8.746;2023-02-28T17:32:41;8.73;;;4.13;;
46777;SDS011;32536;47.128;8.746;2023-02-28T17:35:08;8.60;;;4.47;;
46777;SDS011;32536;47.128;8.746;2023-02-28T17:37:35;10.05;;;5.57;;
46777;SDS011;32536;47.128;8.746;2023-02-28T17:40:02;9.18;;;5.07;;
46777;SDS011;32536;47.128;8.746;2023-02-28T17:42:30;7.78;;;4.47;;
46777;SDS011;32536;47.128;8.746;2023-02-28T17:44:57;9.73;;;5.22;;
46777;SDS011;32536;47.128;8.746;2023-02-28T17:47:23;8.45;;;4.57;;
46777;SDS011;32536;47.128;8.746;2023-02-28T17:49:50;9.35;;;4.53;;
46777;SDS011;32536;47.128;8.746;2023-02-28T17:52:17;6.80;;;3.55;;
46777;SDS011;32536;47.128;8.746;2023-02-28T17:54:43;7.05;;;3.65;;
46777;SDS011;32536;47.128;8.746;2023-02-28T17:57:12;6.93;;;4.10;;
46777;SDS011;32536;47.128;8.746;2023-02-28T17:59:42;6.95;;;3.85;;
46777;SDS011;32536;47.128;8.746;2023-02-28T18:02:11;9.80;;;4.45;;
46777;SDS011;32536;47.128;8.746;2023-02-28T18:04:39;10.48;;;5.40;;